Lakemore, Ohio
Current Conditions -  °F | °C
As of 2:54 PM on Sunday 23 Nov 2014 (Local Time) from KAKR Reporting Station
Clear Clear  
Wind Chill: 59°   Ceiling: Unl
Heat Index: 59°   Visibility: 10mi
Dew Point: 42°   Wind: 5mph
Humidity: 53%   Direction: NA
Pressure: 29.82"   Gusts: NA
Location:  41.02°N, 81.44°W
Report Text: KAKR 231954Z AUTO VRB04KT 10SM CLR 15/06 A2982 RMK AO2 SLP097 T01500056
Loading
Personal Weather Stations






























Interactive Weather Map New forecast layout! Learn more

10-Day Weather Forecast

Advertisements
Track Severe Weather on mobile